Racket, Missouri
Current Conditions -  °F | °C
As of 12:35 PM on Monday 26 Jan 2015 (Local Time) from KGLY Reporting Station
Clear Clear  
Wind Chill: 42°   Ceiling: Unl
Heat Index: 48°   Visibility: 10mi
Dew Point: 36°   Wind: 15mph
Humidity: 62%   Direction: 230°SW
Pressure: 29.95"   Gusts: 22mph
Location:  38.3166°N, 93.2711°W
Report Text: KGLY 261835Z AUTO 23013G19KT 10SM CLR 09/02 A2995 RMK AO2
Loading
Personal Weather Stations






























Interactive Weather Map New forecast layout! Learn more

10-Day Weather Forecast

Advertisements
Track Severe Weather on mobile